createdAt,value
2022-10-09T00:01:09.664Z,0.50
2022-10-09T00:03:39.127Z,0.50
2022-10-09T00:06:08.378Z,0.50
2022-10-09T00:08:36.285Z,0.47
2022-10-09T00:11:06.314Z,0.50
2022-10-09T00:13:35.267Z,0.50
2022-10-09T00:16:04.395Z,0.40
2022-10-09T00:18:31.939Z,0.40
2022-10-09T00:20:59.471Z,0.50
2022-10-09T00:23:27.309Z,0.45
2022-10-09T00:25:56.246Z,0.50
2022-10-09T00:28:25.631Z,0.50
2022-10-09T00:30:55.090Z,0.40
2022-10-09T00:33:23.070Z,0.50
2022-10-09T00:35:50.834Z,0.40
2022-10-09T00:38:18.628Z,0.40
2022-10-09T00:40:46.150Z,0.50
2022-10-09T00:43:17.052Z,0.50
2022-10-09T00:45:48.867Z,0.50
2022-10-09T00:48:19.125Z,0.40
2022-10-09T00:50:52.907Z,0.60
2022-10-09T00:53:23.448Z,0.50
2022-10-09T00:55:51.249Z,0.50
2022-10-09T00:58:19.549Z,0.40
2022-10-09T01:00:47.061Z,0.50
2022-10-09T01:03:14.661Z,0.47
2022-10-09T01:05:54.492Z,0.50
2022-10-09T01:08:29.055Z,0.50
2022-10-09T01:11:03.076Z,0.50
2022-10-09T01:13:37.331Z,0.50
2022-10-09T01:18:44.345Z,0.50
2022-10-09T01:21:18.071Z,0.60
2022-10-09T01:24:13.351Z,0.50
2022-10-09T01:27:06.152Z,0.50
2022-10-09T01:29:36.996Z,0.60
2022-10-09T01:32:06.188Z,0.50
2022-10-09T01:34:34.516Z,0.55
2022-10-09T01:37:03.001Z,0.60
2022-10-09T01:39:31.613Z,0.50
2022-10-09T01:41:59.757Z,0.60
2022-10-09T01:44:30.363Z,0.47
2022-10-09T01:46:58.459Z,0.50
2022-10-09T01:49:36.869Z,0.60
2022-10-09T01:52:12.381Z,0.50
2022-10-09T01:54:50.462Z,0.50
2022-10-09T01:57:24.816Z,0.50
2022-10-09T02:02:22.867Z,0.50
2022-10-09T02:04:51.012Z,0.60
2022-10-09T02:07:18.877Z,0.50
2022-10-09T02:09:46.918Z,0.50
2022-10-09T02:12:17.701Z,0.52
2022-10-09T02:14:45.155Z,0.65
2022-10-09T02:17:19.197Z,0.70
2022-10-09T02:19:49.991Z,0.70
2022-10-09T02:22:20.882Z,0.73
2022-10-09T02:24:48.675Z,0.70
2022-10-09T02:27:17.330Z,0.80
2022-10-09T02:29:46.370Z,0.80
2022-10-09T02:32:15.578Z,0.70
2022-10-09T02:34:43.685Z,0.70
2022-10-09T02:37:11.549Z,0.80
2022-10-09T02:39:39.123Z,0.90
2022-10-09T02:42:06.699Z,0.80
2022-10-09T02:44:34.154Z,0.80
2022-10-09T02:47:02.417Z,0.80
2022-10-09T02:49:31.228Z,0.70
2022-10-09T02:51:58.686Z,0.70
2022-10-09T02:54:26.156Z,0.75
2022-10-09T02:56:53.991Z,0.70
2022-10-09T02:59:21.476Z,0.70
2022-10-09T03:01:49.041Z,0.70
2022-10-09T03:04:17.118Z,0.77
2022-10-09T03:06:45.958Z,0.73
2022-10-09T03:09:13.432Z,0.80
2022-10-09T03:11:40.925Z,0.70
2022-10-09T03:14:08.485Z,0.77
2022-10-09T03:16:36.116Z,0.70
2022-10-09T03:19:03.798Z,0.60
2022-10-09T03:21:31.620Z,0.68
2022-10-09T03:24:00.602Z,0.70
2022-10-09T03:26:28.665Z,0.60
2022-10-09T03:28:56.633Z,0.73
2022-10-09T03:31:51.037Z,0.60
2022-10-09T03:34:14.301Z,0.60
2022-10-09T03:36:42.192Z,0.70
2022-10-09T03:39:11.479Z,0.70
2022-10-09T03:41:38.974Z,0.60
2022-10-09T03:44:06.539Z,0.60
2022-10-09T03:46:34.074Z,0.60
2022-10-09T03:49:01.644Z,0.65
2022-10-09T03:51:29.099Z,0.55
2022-10-09T03:53:56.565Z,0.60
2022-10-09T03:56:25.363Z,0.68
2022-10-09T03:58:52.822Z,0.73
2022-10-09T04:01:20.374Z,0.68
2022-10-09T04:03:47.935Z,0.60
2022-10-09T04:06:15.620Z,0.60
2022-10-09T04:08:43.076Z,0.70
2022-10-09T04:11:10.544Z,0.60
2022-10-09T04:13:39.700Z,0.70
2022-10-09T04:16:09.386Z,0.88
2022-10-09T04:18:36.896Z,0.70
2022-10-09T04:21:04.422Z,0.65
2022-10-09T04:23:32.186Z,0.60
2022-10-09T04:26:00.780Z,0.60
2022-10-09T04:28:29.611Z,0.65
2022-10-09T04:30:59.383Z,0.60
2022-10-09T04:33:27.799Z,0.63
2022-10-09T04:35:56.516Z,0.60
2022-10-09T04:38:25.530Z,0.57
2022-10-09T04:40:57.386Z,0.60
2022-10-09T04:43:25.468Z,0.60
2022-10-09T04:45:53.009Z,0.70
2022-10-09T04:48:22.598Z,0.60
2022-10-09T04:50:50.111Z,0.65
2022-10-09T04:53:17.850Z,0.60
2022-10-09T04:55:45.794Z,0.60
2022-10-09T04:58:14.191Z,0.60
2022-10-09T05:00:43.255Z,0.60
2022-10-09T05:03:11.425Z,0.68
2022-10-09T05:05:40.646Z,0.63
2022-10-09T05:08:08.134Z,0.70
2022-10-09T05:10:35.654Z,0.60
2022-10-09T05:13:03.195Z,0.63
2022-10-09T05:15:30.895Z,0.60
2022-10-09T05:17:58.395Z,0.63
2022-10-09T05:20:25.880Z,0.68
2022-10-09T05:22:54.685Z,0.70
2022-10-09T05:25:22.148Z,0.50
2022-10-09T05:27:49.639Z,0.47
2022-10-09T05:30:17.114Z,0.50
2022-10-09T05:32:44.580Z,0.50
2022-10-09T05:35:12.451Z,0.60
2022-10-09T05:37:39.923Z,0.50
2022-10-09T05:40:10.113Z,0.55
2022-10-09T05:42:37.599Z,0.50
2022-10-09T05:45:05.472Z,0.50
2022-10-09T05:47:32.935Z,0.52
2022-10-09T05:50:00.557Z,0.60
2022-10-09T05:52:28.349Z,0.50
2022-10-09T05:54:57.086Z,0.50
2022-10-09T05:57:25.855Z,0.52
2022-10-09T05:59:53.335Z,0.60
2022-10-09T06:02:20.856Z,0.55
2022-10-09T06:04:48.371Z,0.57
2022-10-09T06:07:15.843Z,0.60
2022-10-09T06:09:43.275Z,0.60
2022-10-09T06:12:10.744Z,0.60
2022-10-09T06:14:39.555Z,0.60
2022-10-09T06:17:07.075Z,0.50
2022-10-09T06:19:34.568Z,0.50
2022-10-09T06:22:02.038Z,0.40
2022-10-09T06:24:29.725Z,0.43
2022-10-09T06:26:57.276Z,0.50
2022-10-09T06:29:24.823Z,0.50
2022-10-09T06:31:53.771Z,0.43
2022-10-09T06:34:21.469Z,0.50
2022-10-09T06:36:49.206Z,0.57
2022-10-09T06:39:16.902Z,0.50
2022-10-09T06:41:44.377Z,0.50
2022-10-09T06:44:16.719Z,0.63
2022-10-09T06:46:45.890Z,0.60
2022-10-09T06:49:14.754Z,0.63
2022-10-09T06:51:42.218Z,0.70
2022-10-09T06:54:13.037Z,0.75
2022-10-09T06:56:41.176Z,0.73
2022-10-09T06:59:08.848Z,0.80
2022-10-09T07:01:36.463Z,0.80
2022-10-09T07:04:06.973Z,0.80
2022-10-09T07:06:39.873Z,0.80
2022-10-09T07:09:10.646Z,0.70
2022-10-09T07:11:40.137Z,0.60
2022-10-09T07:14:09.370Z,0.60
2022-10-09T07:16:38.573Z,0.60
2022-10-09T07:19:08.141Z,0.60
2022-10-09T07:21:37.256Z,0.65
2022-10-09T07:24:06.450Z,0.65
2022-10-09T07:26:36.575Z,0.70
2022-10-09T07:29:05.921Z,0.60
2022-10-09T07:31:33.386Z,0.60
2022-10-09T07:34:01.460Z,0.60
2022-10-09T07:36:29.075Z,0.50
2022-10-09T07:38:59.308Z,0.50
2022-10-09T07:41:29.633Z,0.40
2022-10-09T07:43:57.954Z,0.60
2022-10-09T07:46:32.209Z,0.40
2022-10-09T07:49:01.254Z,0.40
2022-10-09T07:51:30.522Z,0.50
2022-10-09T07:54:00.215Z,0.40
2022-10-09T07:56:29.245Z,0.50
2022-10-09T07:58:58.666Z,0.50
2022-10-09T08:01:27.908Z,0.60
2022-10-09T08:03:55.896Z,0.60
2022-10-09T08:06:24.167Z,0.50
2022-10-09T08:08:52.376Z,0.40
2022-10-09T08:11:22.736Z,0.50
2022-10-09T08:13:51.421Z,0.50
2022-10-09T08:16:19.935Z,0.40
2022-10-09T08:18:47.764Z,0.40
2022-10-09T08:21:17.209Z,0.40
2022-10-09T08:23:45.781Z,0.40
2022-10-09T08:26:14.594Z,0.40
2022-10-09T08:28:43.679Z,0.50
2022-10-09T08:31:12.670Z,0.40
2022-10-09T08:33:40.292Z,0.45
2022-10-09T08:36:09.235Z,0.40
2022-10-09T08:38:47.245Z,0.50
2022-10-09T08:41:25.263Z,0.47
2022-10-09T08:44:01.146Z,0.50
2022-10-09T08:46:35.899Z,0.47
2022-10-09T08:49:05.338Z,0.60
2022-10-09T08:51:38.240Z,0.40
2022-10-09T08:54:14.240Z,0.40
2022-10-09T08:56:41.709Z,0.30
2022-10-09T08:59:13.210Z,0.30
2022-10-09T09:01:46.423Z,0.40
2022-10-09T09:04:54.566Z,0.40
2022-10-09T09:07:30.037Z,0.40
2022-10-09T09:10:02.619Z,0.55
2022-10-09T09:12:38.368Z,0.60
2022-10-09T09:15:24.053Z,0.50
2022-10-09T09:17:59.648Z,0.50
2022-10-09T09:20:30.511Z,0.40
2022-10-09T09:23:02.287Z,0.30
2022-10-09T09:25:35.343Z,0.30
2022-10-09T09:28:14.449Z,0.30
2022-10-09T09:30:46.320Z,0.40
2022-10-09T09:33:20.320Z,0.30
2022-10-09T09:35:56.866Z,0.50
2022-10-09T09:38:24.359Z,0.40
2022-10-09T09:40:51.870Z,0.40
2022-10-09T09:43:21.180Z,0.40
2022-10-09T09:45:53.039Z,0.40
2022-10-09T09:48:32.827Z,0.38
2022-10-09T09:51:23.535Z,0.50
2022-10-09T09:53:51.119Z,0.40
2022-10-09T09:56:19.565Z,0.50
2022-10-09T09:58:48.952Z,0.50
2022-10-09T10:01:25.747Z,0.40
2022-10-09T10:03:55.246Z,0.40
2022-10-09T10:06:24.614Z,0.40
2022-10-09T10:08:59.953Z,0.40
2022-10-09T10:11:27.737Z,0.70
2022-10-09T10:13:55.321Z,0.70
2022-10-09T10:16:25.948Z,0.50
2022-10-09T10:18:55.338Z,0.40
2022-10-09T10:21:23.789Z,0.47
2022-10-09T10:23:54.179Z,0.40
2022-10-09T10:26:26.349Z,0.52
2022-10-09T10:28:58.608Z,0.50
2022-10-09T10:31:43.139Z,0.40
2022-10-09T10:36:44.061Z,0.40
2022-10-09T10:39:19.616Z,0.50
2022-10-09T10:41:50.717Z,0.50
2022-10-09T10:44:25.067Z,0.40
2022-10-09T10:49:24.309Z,0.30
2022-10-09T10:52:06.699Z,0.50
2022-10-09T10:54:39.840Z,0.30
2022-10-09T10:57:17.118Z,0.45
2022-10-09T10:59:57.384Z,0.32
2022-10-09T11:02:52.588Z,0.30
2022-10-09T11:05:28.431Z,0.32
2022-10-09T11:08:08.778Z,0.40
2022-10-09T11:10:45.992Z,0.40
2022-10-09T11:13:19.637Z,0.50
2022-10-09T11:15:56.612Z,0.40
2022-10-09T11:18:42.278Z,0.63
2022-10-09T11:21:23.851Z,0.50
2022-10-09T11:24:12.524Z,0.60
2022-10-09T11:26:49.577Z,0.75
2022-10-09T11:29:21.448Z,0.80
2022-10-09T11:31:53.395Z,0.90
2022-10-09T11:34:27.704Z,0.47
2022-10-09T11:39:26.921Z,0.40
2022-10-09T11:41:55.840Z,0.40
2022-10-09T11:44:39.323Z,0.40
2022-10-09T11:47:14.891Z,0.50
2022-10-09T11:49:59.532Z,0.50
2022-10-09T11:55:09.241Z,0.40
2022-10-09T11:57:36.738Z,0.52
2022-10-09T12:00:07.929Z,0.55
2022-10-09T12:02:37.063Z,0.50
2022-10-09T12:05:19.292Z,0.60
2022-10-09T12:07:47.348Z,0.40
2022-10-09T12:10:32.585Z,0.50
2022-10-09T12:13:02.964Z,0.50
2022-10-09T12:15:40.244Z,0.50
2022-10-09T12:18:21.979Z,0.50
2022-10-09T12:20:51.741Z,0.52
2022-10-09T12:23:27.697Z,0.47
2022-10-09T12:25:57.095Z,0.40
2022-10-09T12:28:29.959Z,0.60
2022-10-09T12:31:00.546Z,0.60
2022-10-09T12:33:35.635Z,0.45
2022-10-09T12:36:07.476Z,0.80
2022-10-09T12:38:35.014Z,0.70
2022-10-09T12:41:05.456Z,0.70
2022-10-09T12:43:33.737Z,0.60
2022-10-09T12:46:01.887Z,0.60
2022-10-09T12:48:36.620Z,0.57
2022-10-09T12:51:16.318Z,0.95
2022-10-09T12:53:48.751Z,0.70
2022-10-09T12:56:21.860Z,0.40
2022-10-09T12:58:50.490Z,0.45
2022-10-09T13:01:19.019Z,0.50
2022-10-09T13:03:55.210Z,0.70
2022-10-09T13:06:26.889Z,0.70
2022-10-09T13:08:57.875Z,0.60
2022-10-09T13:11:32.223Z,0.73
2022-10-09T13:13:59.907Z,1.20
2022-10-09T13:16:27.685Z,1.10
2022-10-09T13:18:59.299Z,0.68
2022-10-09T13:21:32.709Z,0.70
2022-10-09T13:24:08.712Z,0.50
2022-10-09T13:26:36.586Z,0.60
2022-10-09T13:29:06.963Z,0.50
2022-10-09T13:31:36.519Z,0.30
2022-10-09T13:34:12.462Z,0.30
2022-10-09T13:36:41.864Z,0.30
2022-10-09T13:39:14.263Z,0.32
2022-10-09T13:41:43.846Z,0.40
2022-10-09T13:44:11.404Z,0.30
2022-10-09T13:46:39.004Z,0.40
2022-10-09T13:49:06.463Z,0.43
2022-10-09T13:51:34.624Z,0.40
2022-10-09T13:54:03.522Z,0.45
2022-10-09T13:56:31.107Z,0.50
2022-10-09T13:58:58.672Z,0.50
2022-10-09T14:01:26.164Z,0.40
2022-10-09T14:03:53.655Z,0.30
2022-10-09T14:06:22.322Z,0.40
2022-10-09T14:08:49.949Z,0.50
2022-10-09T14:11:52.410Z,0.47
2022-10-09T14:14:19.865Z,0.30
2022-10-09T14:16:47.325Z,0.40
2022-10-09T14:19:15.194Z,0.40
2022-10-09T14:21:42.729Z,0.40
2022-10-09T14:24:11.115Z,0.32
2022-10-09T14:26:38.763Z,0.40
2022-10-09T14:29:07.607Z,0.40
2022-10-09T14:31:35.072Z,0.40
2022-10-09T14:34:02.550Z,0.40
2022-10-09T14:36:31.494Z,0.40
2022-10-09T14:39:00.462Z,0.40
2022-10-09T14:41:27.988Z,0.45
2022-10-09T14:43:57.065Z,0.32
2022-10-09T14:46:27.546Z,0.40
2022-10-09T14:48:56.812Z,0.50
2022-10-09T14:51:26.527Z,0.32
2022-10-09T14:53:57.845Z,0.50
2022-10-09T14:56:26.324Z,0.50
2022-10-09T14:58:54.374Z,0.50
2022-10-09T15:01:23.390Z,0.50
2022-10-09T15:03:52.322Z,0.50
2022-10-09T15:06:23.979Z,0.50
2022-10-09T15:08:54.600Z,0.47
2022-10-09T15:11:22.105Z,0.40
2022-10-09T15:13:50.104Z,0.50
2022-10-09T15:16:18.992Z,0.40
2022-10-09T15:18:47.517Z,0.40
2022-10-09T15:21:18.198Z,0.40
2022-10-09T15:23:46.361Z,0.47
2022-10-09T15:26:14.914Z,0.40
2022-10-09T15:28:44.739Z,0.50
2022-10-09T15:31:21.989Z,0.50
2022-10-09T15:33:50.999Z,0.50
2022-10-09T15:36:20.298Z,0.40
2022-10-09T15:38:48.529Z,0.50
2022-10-09T15:41:24.519Z,0.30
2022-10-09T15:44:47.656Z,0.40
2022-10-09T15:47:16.584Z,0.40
2022-10-09T15:49:44.873Z,0.40
2022-10-09T15:52:13.687Z,0.50
2022-10-09T15:54:41.180Z,0.50
2022-10-09T15:57:08.622Z,0.50
2022-10-09T15:59:40.058Z,0.47
2022-10-09T16:02:08.231Z,0.43
2022-10-09T16:04:36.015Z,0.45
2022-10-09T16:07:03.697Z,0.40
2022-10-09T16:09:34.055Z,0.32
2022-10-09T16:12:01.595Z,0.40
2022-10-09T16:14:29.968Z,0.40
2022-10-09T16:16:57.788Z,0.30
2022-10-09T16:19:26.037Z,0.30
2022-10-09T16:21:53.598Z,0.40
2022-10-09T16:24:21.127Z,0.40
2022-10-09T16:26:50.876Z,0.55
2022-10-09T16:29:18.333Z,0.55
2022-10-09T16:31:45.838Z,0.60
2022-10-09T16:34:13.303Z,0.73
2022-10-09T16:36:40.828Z,0.70
2022-10-09T16:39:08.417Z,0.60
2022-10-09T16:41:41.009Z,0.60
2022-10-09T16:44:16.831Z,0.60
2022-10-09T16:46:44.282Z,0.45
2022-10-09T16:49:20.085Z,0.70
2022-10-09T16:51:50.694Z,0.60
2022-10-09T16:54:18.206Z,0.50
2022-10-09T16:56:45.651Z,0.60
2022-10-09T16:59:14.565Z,0.60
2022-10-09T17:01:45.031Z,0.50
2022-10-09T17:04:13.457Z,0.50
2022-10-09T17:06:41.360Z,0.70
2022-10-09T17:09:13.799Z,0.70
2022-10-09T17:11:41.880Z,0.75
2022-10-09T17:14:09.404Z,0.70
2022-10-09T17:16:40.174Z,0.60
2022-10-09T17:19:07.900Z,0.60
2022-10-09T17:21:35.751Z,0.60
2022-10-09T17:24:05.549Z,0.52
2022-10-09T17:26:33.112Z,0.57
2022-10-09T17:29:02.567Z,0.50
2022-10-09T17:31:30.656Z,0.60
2022-10-09T17:34:01.552Z,0.65
2022-10-09T17:36:34.891Z,0.70
2022-10-09T17:39:02.502Z,0.70
2022-10-09T17:41:30.099Z,0.70
2022-10-09T17:43:58.590Z,0.50
2022-10-09T17:46:27.559Z,0.50
2022-10-09T17:48:56.721Z,0.57
2022-10-09T17:51:27.424Z,0.52
2022-10-09T17:56:26.185Z,0.90
2022-10-09T17:58:55.918Z,0.82
2022-10-09T18:01:24.296Z,0.47
2022-10-09T18:03:52.364Z,0.40
2022-10-09T18:06:23.696Z,0.45
2022-10-09T18:08:54.860Z,0.40
2022-10-09T18:11:23.894Z,0.40
2022-10-09T18:13:52.034Z,0.38
2022-10-09T18:16:22.419Z,0.40
2022-10-09T18:18:50.263Z,0.40
2022-10-09T18:21:18.086Z,0.50
2022-10-09T18:23:46.292Z,0.30
2022-10-09T18:26:17.329Z,0.30
2022-10-09T18:28:48.218Z,0.40
2022-10-09T18:31:19.023Z,0.40
2022-10-09T18:33:47.090Z,0.50
2022-10-09T18:36:19.323Z,0.40
2022-10-09T18:38:48.429Z,0.40
2022-10-09T18:41:17.336Z,0.45
2022-10-09T18:43:44.803Z,0.40
2022-10-09T18:46:12.594Z,0.40
2022-10-09T18:48:42.160Z,0.50
2022-10-09T18:51:14.403Z,0.40
2022-10-09T18:53:44.684Z,0.50
2022-10-09T18:56:13.051Z,0.50
2022-10-09T18:58:42.774Z,0.50
2022-10-09T19:01:10.300Z,0.60
2022-10-09T19:03:37.812Z,0.60
2022-10-09T19:06:05.756Z,0.50
2022-10-09T19:08:35.040Z,0.43
2022-10-09T19:11:03.052Z,0.50
2022-10-09T19:13:30.587Z,0.68
2022-10-09T19:15:59.714Z,0.50
2022-10-09T19:18:28.057Z,0.57
2022-10-09T19:20:55.495Z,0.43
2022-10-09T19:23:22.979Z,0.47
2022-10-09T19:25:55.051Z,0.32
2022-10-09T19:28:24.465Z,0.40
2022-10-09T19:30:52.300Z,0.40
2022-10-09T19:33:21.119Z,0.47
2022-10-09T19:35:49.861Z,0.50
2022-10-09T19:38:18.160Z,0.47
2022-10-09T19:40:46.177Z,0.60
2022-10-09T19:43:14.498Z,0.55
2022-10-09T19:45:42.487Z,0.50
2022-10-09T19:48:10.984Z,0.50
2022-10-09T19:50:43.038Z,0.50
2022-10-09T19:53:11.235Z,0.40
2022-10-09T19:55:39.312Z,0.50
2022-10-09T19:58:07.116Z,0.50
2022-10-09T20:00:34.728Z,0.50
2022-10-09T20:03:02.222Z,0.50
2022-10-09T20:05:29.654Z,0.40
2022-10-09T20:07:58.702Z,0.38
2022-10-09T20:10:26.179Z,0.50
2022-10-09T20:12:53.618Z,0.40
2022-10-09T20:15:22.093Z,0.43
2022-10-09T20:17:49.879Z,0.45
2022-10-09T20:20:17.509Z,0.50
2022-10-09T20:22:44.995Z,0.47
2022-10-09T20:25:13.793Z,0.50
2022-10-09T20:27:41.293Z,0.50
2022-10-09T20:30:09.602Z,0.50
2022-10-09T20:32:37.298Z,0.60
2022-10-09T20:35:05.701Z,0.50
2022-10-09T20:37:34.819Z,0.50
2022-10-09T20:40:02.355Z,0.40
2022-10-09T20:42:32.005Z,0.40
2022-10-09T20:44:59.527Z,0.40
2022-10-09T21:01:59.263Z,0.47
2022-10-09T21:04:26.690Z,0.40
2022-10-09T21:06:55.171Z,0.50
2022-10-09T21:09:22.642Z,0.40
2022-10-09T21:11:50.638Z,0.40
2022-10-09T21:14:18.193Z,0.43
2022-10-09T21:16:45.679Z,0.40
2022-10-09T21:19:14.538Z,0.50
2022-10-09T21:21:42.332Z,0.52
2022-10-09T21:24:09.814Z,0.70
2022-10-09T21:26:39.207Z,0.70
2022-10-09T21:29:07.296Z,0.60
2022-10-09T21:31:35.342Z,0.60
2022-10-09T21:34:03.099Z,0.60
2022-10-09T21:36:37.507Z,0.50
2022-10-09T21:39:07.291Z,0.50
2022-10-09T21:41:35.555Z,0.50
2022-10-09T21:44:03.148Z,0.55
2022-10-09T21:46:31.556Z,0.60
2022-10-09T21:48:59.315Z,0.60
2022-10-09T21:51:27.954Z,0.50
2022-10-09T21:53:56.798Z,0.60
2022-10-09T21:56:24.572Z,0.50
2022-10-09T21:58:52.383Z,0.70
2022-10-09T22:01:19.859Z,0.47
2022-10-09T22:03:47.522Z,0.68
2022-10-09T22:06:19.097Z,0.50
2022-10-09T22:08:47.782Z,0.57
2022-10-09T22:11:17.627Z,0.43
2022-10-09T22:13:45.221Z,0.50
2022-10-09T22:16:14.978Z,0.50
2022-10-09T22:18:43.176Z,0.60
2022-10-09T22:21:12.797Z,0.60
2022-10-09T22:23:40.810Z,0.50
2022-10-09T22:26:11.445Z,0.50
2022-10-09T22:28:40.483Z,0.65
2022-10-09T22:31:10.607Z,0.55
2022-10-09T22:33:38.395Z,0.57
2022-10-09T22:36:08.040Z,0.57
2022-10-09T22:38:36.073Z,0.52
2022-10-09T22:41:05.666Z,0.57
2022-10-09T22:43:33.156Z,0.60
2022-10-09T22:46:05.946Z,0.50
2022-10-09T22:48:34.970Z,0.50
2022-10-09T22:51:03.983Z,0.50
2022-10-09T22:53:31.799Z,0.50
2022-10-09T22:55:59.825Z,0.50
2022-10-09T22:58:27.413Z,0.47
2022-10-09T23:00:54.863Z,0.60
2022-10-09T23:03:23.672Z,0.60
2022-10-09T23:05:51.120Z,0.50
2022-10-09T23:08:18.588Z,0.52
2022-10-09T23:10:46.035Z,0.50
2022-10-09T23:13:13.612Z,0.50
2022-10-09T23:15:41.079Z,0.50
2022-10-09T23:18:09.227Z,0.50
2022-10-09T23:20:38.290Z,0.40
2022-10-09T23:23:05.793Z,0.50
2022-10-09T23:25:33.256Z,0.50
2022-10-09T23:28:00.696Z,0.50
2022-10-09T23:30:28.147Z,0.50
2022-10-09T23:32:55.591Z,0.50
2022-10-09T23:35:23.064Z,0.50
2022-10-09T23:37:53.353Z,0.50
2022-10-09T23:40:21.448Z,0.55
2022-10-09T23:42:49.271Z,0.95
2022-10-09T23:45:17.955Z,0.50
2022-10-09T23:47:45.415Z,0.50
2022-10-09T23:50:12.841Z,0.50
2022-10-09T23:52:40.320Z,0.40
2022-10-09T23:55:09.775Z,0.40
2022-10-09T23:57:37.234Z,0.50
